sensor_id;sensor_type;location;lat;lon;timestamp;P1;durP1;ratioP1;P2;durP2;ratioP2
13012;SDS011;22580;57.670;12.006;2022-09-09T00:00:38;0.20;;;0.20;;
13012;SDS011;22580;57.670;12.006;2022-09-09T00:03:12;0.20;;;0.20;;
13012;SDS011;22580;57.670;12.006;2022-09-09T00:05:44;0.40;;;0.37;;
13012;SDS011;22580;57.670;12.006;2022-09-09T00:08:19;0.30;;;0.30;;
13012;SDS011;22580;57.670;12.006;2022-09-09T00:10:48;0.37;;;0.37;;
13012;SDS011;22580;57.670;12.006;2022-09-09T00:13:28;0.27;;;0.27;;
13012;SDS011;22580;57.670;12.006;2022-09-09T00:16:02;0.70;;;0.33;;
13012;SDS011;22580;57.670;12.006;2022-09-09T00:18:45;0.40;;;0.30;;
13012;SDS011;22580;57.670;12.006;2022-09-09T00:21:19;0.20;;;0.20;;
13012;SDS011;22580;57.670;12.006;2022-09-09T00:23:53;0.30;;;0.30;;
13012;SDS011;22580;57.670;12.006;2022-09-09T00:26:22;0.30;;;0.30;;
13012;SDS011;22580;57.670;12.006;2022-09-09T00:29:00;0.40;;;0.40;;
13012;SDS011;22580;57.670;12.006;2022-09-09T00:31:31;0.40;;;0.40;;
13012;SDS011;22580;57.670;12.006;2022-09-09T00:34:03;0.20;;;0.20;;
13012;SDS011;22580;57.670;12.006;2022-09-09T00:36:36;0.40;;;0.40;;
13012;SDS011;22580;57.670;12.006;2022-09-09T00:39:04;0.40;;;0.30;;
13012;SDS011;22580;57.670;12.006;2022-09-09T00:41:35;0.40;;;0.40;;
13012;SDS011;22580;57.670;12.006;2022-09-09T00:44:20;0.53;;;0.33;;
13012;SDS011;22580;57.670;12.006;2022-09-09T00:46:59;0.43;;;0.43;;
13012;SDS011;22580;57.670;12.006;2022-09-09T00:49:39;0.40;;;0.40;;
13012;SDS011;22580;57.670;12.006;2022-09-09T00:52:20;0.50;;;0.50;;
13012;SDS011;22580;57.670;12.006;2022-09-09T00:54:56;0.43;;;0.43;;
13012;SDS011;22580;57.670;12.006;2022-09-09T00:57:31;0.60;;;0.60;;
13012;SDS011;22580;57.670;12.006;2022-09-09T01:00:17;0.47;;;0.47;;
13012;SDS011;22580;57.670;12.006;2022-09-09T01:02:53;0.30;;;0.30;;
13012;SDS011;22580;57.670;12.006;2022-09-09T01:05:44;0.50;;;0.50;;
13012;SDS011;22580;57.670;12.006;2022-09-09T01:08:19;0.40;;;0.40;;
13012;SDS011;22580;57.670;12.006;2022-09-09T01:11:03;0.40;;;0.40;;
13012;SDS011;22580;57.670;12.006;2022-09-09T01:13:33;0.20;;;0.20;;
13012;SDS011;22580;57.670;12.006;2022-09-09T01:16:04;0.50;;;0.50;;
13012;SDS011;22580;57.670;12.006;2022-09-09T01:18:38;0.50;;;0.50;;
13012;SDS011;22580;57.670;12.006;2022-09-09T01:21:09;0.40;;;0.40;;
13012;SDS011;22580;57.670;12.006;2022-09-09T01:23:52;0.30;;;0.30;;
13012;SDS011;22580;57.670;12.006;2022-09-09T01:26:33;0.50;;;0.50;;
13012;SDS011;22580;57.670;12.006;2022-09-09T01:29:03;0.40;;;0.40;;
13012;SDS011;22580;57.670;12.006;2022-09-09T01:31:35;0.50;;;0.50;;
13012;SDS011;22580;57.670;12.006;2022-09-09T01:34:09;0.57;;;0.57;;
13012;SDS011;22580;57.670;12.006;2022-09-09T01:36:39;0.50;;;0.50;;
13012;SDS011;22580;57.670;12.006;2022-09-09T01:39:10;0.40;;;0.40;;
13012;SDS011;22580;57.670;12.006;2022-09-09T01:41:39;0.50;;;0.50;;
13012;SDS011;22580;57.670;12.006;2022-09-09T01:44:06;0.57;;;0.30;;
13012;SDS011;22580;57.670;12.006;2022-09-09T01:46:34;0.50;;;0.50;;
13012;SDS011;22580;57.670;12.006;2022-09-09T01:49:02;0.53;;;0.40;;
13012;SDS011;22580;57.670;12.006;2022-09-09T01:51:31;0.50;;;0.50;;
13012;SDS011;22580;57.670;12.006;2022-09-09T01:53:59;0.50;;;0.50;;
13012;SDS011;22580;57.670;12.006;2022-09-09T01:56:30;0.40;;;0.40;;
13012;SDS011;22580;57.670;12.006;2022-09-09T01:59:18;0.30;;;0.30;;
13012;SDS011;22580;57.670;12.006;2022-09-09T02:01:58;0.93;;;0.50;;
13012;SDS011;22580;57.670;12.006;2022-09-09T02:04:36;0.60;;;0.60;;
13012;SDS011;22580;57.670;12.006;2022-09-09T02:07:10;0.60;;;0.60;;
13012;SDS011;22580;57.670;12.006;2022-09-09T02:09:57;0.47;;;0.40;;
13012;SDS011;22580;57.670;12.006;2022-09-09T02:12:28;0.50;;;0.50;;
13012;SDS011;22580;57.670;12.006;2022-09-09T02:14:59;0.43;;;0.43;;
13012;SDS011;22580;57.670;12.006;2022-09-09T02:17:31;0.60;;;0.60;;
13012;SDS011;22580;57.670;12.006;2022-09-09T02:20:03;0.40;;;0.40;;
13012;SDS011;22580;57.670;12.006;2022-09-09T02:22:34;0.40;;;0.40;;
13012;SDS011;22580;57.670;12.006;2022-09-09T02:25:06;0.40;;;0.40;;
13012;SDS011;22580;57.670;12.006;2022-09-09T02:27:36;0.40;;;0.40;;
13012;SDS011;22580;57.670;12.006;2022-09-09T02:30:06;0.40;;;0.40;;
13012;SDS011;22580;57.670;12.006;2022-09-09T02:32:34;0.50;;;0.50;;
13012;SDS011;22580;57.670;12.006;2022-09-09T02:35:05;0.40;;;0.40;;
13012;SDS011;22580;57.670;12.006;2022-09-09T02:37:36;0.70;;;0.70;;
13012;SDS011;22580;57.670;12.006;2022-09-09T02:40:05;0.40;;;0.40;;
13012;SDS011;22580;57.670;12.006;2022-09-09T02:42:38;0.57;;;0.40;;
13012;SDS011;22580;57.670;12.006;2022-09-09T02:45:09;0.50;;;0.50;;
13012;SDS011;22580;57.670;12.006;2022-09-09T02:47:39;0.50;;;0.50;;
13012;SDS011;22580;57.670;12.006;2022-09-09T02:50:15;0.60;;;0.60;;
13012;SDS011;22580;57.670;12.006;2022-09-09T02:52:50;1.03;;;0.60;;
13012;SDS011;22580;57.670;12.006;2022-09-09T02:55:32;0.50;;;0.50;;
13012;SDS011;22580;57.670;12.006;2022-09-09T02:58:08;0.60;;;0.60;;
13012;SDS011;22580;57.670;12.006;2022-09-09T03:00:39;0.57;;;0.40;;
13012;SDS011;22580;57.670;12.006;2022-09-09T03:03:07;0.50;;;0.50;;
13012;SDS011;22580;57.670;12.006;2022-09-09T03:05:35;0.47;;;0.47;;
13012;SDS011;22580;57.670;12.006;2022-09-09T03:08:02;0.40;;;0.40;;
13012;SDS011;22580;57.670;12.006;2022-09-09T03:10:30;0.50;;;0.50;;
13012;SDS011;22580;57.670;12.006;2022-09-09T03:12:57;0.40;;;0.40;;
13012;SDS011;22580;57.670;12.006;2022-09-09T03:15:24;0.50;;;0.50;;
13012;SDS011;22580;57.670;12.006;2022-09-09T03:17:55;0.57;;;0.57;;
13012;SDS011;22580;57.670;12.006;2022-09-09T03:20:23;0.57;;;0.57;;
13012;SDS011;22580;57.670;12.006;2022-09-09T03:22:51;0.40;;;0.40;;
13012;SDS011;22580;57.670;12.006;2022-09-09T03:25:18;0.33;;;0.33;;
13012;SDS011;22580;57.670;12.006;2022-09-09T03:27:45;0.50;;;0.50;;
13012;SDS011;22580;57.670;12.006;2022-09-09T03:30:12;0.50;;;0.50;;
13012;SDS011;22580;57.670;12.006;2022-09-09T03:32:39;0.60;;;0.50;;
13012;SDS011;22580;57.670;12.006;2022-09-09T03:35:08;0.50;;;0.50;;
13012;SDS011;22580;57.670;12.006;2022-09-09T03:37:35;0.50;;;0.50;;
13012;SDS011;22580;57.670;12.006;2022-09-09T03:40:04;0.50;;;0.50;;
13012;SDS011;22580;57.670;12.006;2022-09-09T03:42:31;0.60;;;0.60;;
13012;SDS011;22580;57.670;12.006;2022-09-09T03:44:58;0.50;;;0.50;;
13012;SDS011;22580;57.670;12.006;2022-09-09T03:47:25;0.50;;;0.50;;
13012;SDS011;22580;57.670;12.006;2022-09-09T03:49:52;0.60;;;0.60;;
13012;SDS011;22580;57.670;12.006;2022-09-09T03:52:20;0.47;;;0.47;;
13012;SDS011;22580;57.670;12.006;2022-09-09T03:54:50;0.43;;;0.43;;
13012;SDS011;22580;57.670;12.006;2022-09-09T03:57:17;0.50;;;0.50;;
13012;SDS011;22580;57.670;12.006;2022-09-09T03:59:44;0.50;;;0.50;;
13012;SDS011;22580;57.670;12.006;2022-09-09T04:02:11;0.83;;;0.60;;
13012;SDS011;22580;57.670;12.006;2022-09-09T04:04:38;0.50;;;0.50;;
13012;SDS011;22580;57.670;12.006;2022-09-09T04:07:05;0.40;;;0.40;;
13012;SDS011;22580;57.670;12.006;2022-09-09T04:09:34;0.40;;;0.40;;
13012;SDS011;22580;57.670;12.006;2022-09-09T04:12:01;0.40;;;0.40;;
13012;SDS011;22580;57.670;12.006;2022-09-09T04:14:28;0.30;;;0.30;;
13012;SDS011;22580;57.670;12.006;2022-09-09T04:16:55;0.43;;;0.43;;
13012;SDS011;22580;57.670;12.006;2022-09-09T04:19:23;0.40;;;0.40;;
13012;SDS011;22580;57.670;12.006;2022-09-09T04:21:50;0.53;;;0.53;;
13012;SDS011;22580;57.670;12.006;2022-09-09T04:24:17;0.53;;;0.53;;
13012;SDS011;22580;57.670;12.006;2022-09-09T04:26:46;0.40;;;0.40;;
13012;SDS011;22580;57.670;12.006;2022-09-09T04:29:14;0.63;;;0.60;;
13012;SDS011;22580;57.670;12.006;2022-09-09T04:31:41;0.60;;;0.60;;
13012;SDS011;22580;57.670;12.006;2022-09-09T04:34:09;1.10;;;0.50;;
13012;SDS011;22580;57.670;12.006;2022-09-09T04:36:36;0.60;;;0.60;;
13012;SDS011;22580;57.670;12.006;2022-09-09T04:39:04;0.40;;;0.40;;
13012;SDS011;22580;57.670;12.006;2022-09-09T04:41:31;0.37;;;0.37;;
13012;SDS011;22580;57.670;12.006;2022-09-09T04:43:59;0.60;;;0.60;;
13012;SDS011;22580;57.670;12.006;2022-09-09T04:46:27;0.60;;;0.60;;
13012;SDS011;22580;57.670;12.006;2022-09-09T04:48:54;0.77;;;0.70;;
13012;SDS011;22580;57.670;12.006;2022-09-09T04:51:21;2.20;;;0.60;;
13012;SDS011;22580;57.670;12.006;2022-09-09T04:53:49;0.50;;;0.50;;
13012;SDS011;22580;57.670;12.006;2022-09-09T04:56:17;0.67;;;0.67;;
13012;SDS011;22580;57.670;12.006;2022-09-09T04:58:46;0.60;;;0.60;;
13012;SDS011;22580;57.670;12.006;2022-09-09T05:01:15;0.73;;;0.67;;
13012;SDS011;22580;57.670;12.006;2022-09-09T05:03:43;0.80;;;0.60;;
13012;SDS011;22580;57.670;12.006;2022-09-09T05:06:12;0.93;;;0.93;;
13012;SDS011;22580;57.670;12.006;2022-09-09T05:08:40;0.73;;;0.73;;
13012;SDS011;22580;57.670;12.006;2022-09-09T05:11:15;0.60;;;0.60;;
13012;SDS011;22580;57.670;12.006;2022-09-09T05:13:43;0.93;;;0.70;;
13012;SDS011;22580;57.670;12.006;2022-09-09T05:16:11;0.87;;;0.70;;
13012;SDS011;22580;57.670;12.006;2022-09-09T05:18:41;0.70;;;0.70;;
13012;SDS011;22580;57.670;12.006;2022-09-09T05:21:09;0.70;;;0.70;;
13012;SDS011;22580;57.670;12.006;2022-09-09T05:23:37;0.60;;;0.60;;
13012;SDS011;22580;57.670;12.006;2022-09-09T05:26:08;0.87;;;0.87;;
13012;SDS011;22580;57.670;12.006;2022-09-09T05:28:38;0.60;;;0.60;;
13012;SDS011;22580;57.670;12.006;2022-09-09T05:31:06;0.60;;;0.60;;
13012;SDS011;22580;57.670;12.006;2022-09-09T05:33:34;0.60;;;0.60;;
13012;SDS011;22580;57.670;12.006;2022-09-09T05:36:04;0.80;;;0.70;;
13012;SDS011;22580;57.670;12.006;2022-09-09T05:38:33;0.50;;;0.50;;
13012;SDS011;22580;57.670;12.006;2022-09-09T05:41:02;0.50;;;0.50;;
13012;SDS011;22580;57.670;12.006;2022-09-09T05:43:29;0.40;;;0.40;;
13012;SDS011;22580;57.670;12.006;2022-09-09T05:46:00;0.77;;;0.50;;
13012;SDS011;22580;57.670;12.006;2022-09-09T05:48:29;0.70;;;0.70;;
13012;SDS011;22580;57.670;12.006;2022-09-09T05:50:57;0.60;;;0.60;;
13012;SDS011;22580;57.670;12.006;2022-09-09T05:53:26;0.63;;;0.60;;
13012;SDS011;22580;57.670;12.006;2022-09-09T05:55:59;0.70;;;0.70;;
13012;SDS011;22580;57.670;12.006;2022-09-09T05:58:28;0.77;;;0.60;;
13012;SDS011;22580;57.670;12.006;2022-09-09T06:01:06;0.70;;;0.70;;
13012;SDS011;22580;57.670;12.006;2022-09-09T06:03:59;0.63;;;0.63;;
13012;SDS011;22580;57.670;12.006;2022-09-09T06:06:27;0.60;;;0.60;;
13012;SDS011;22580;57.670;12.006;2022-09-09T06:09:03;0.60;;;0.60;;
13012;SDS011;22580;57.670;12.006;2022-09-09T06:11:32;0.40;;;0.40;;
13012;SDS011;22580;57.670;12.006;2022-09-09T06:14:00;0.50;;;0.50;;
13012;SDS011;22580;57.670;12.006;2022-09-09T06:16:27;0.50;;;0.50;;
13012;SDS011;22580;57.670;12.006;2022-09-09T06:18:57;0.60;;;0.60;;
13012;SDS011;22580;57.670;12.006;2022-09-09T06:21:25;0.70;;;0.70;;
13012;SDS011;22580;57.670;12.006;2022-09-09T06:23:53;0.73;;;0.60;;
13012;SDS011;22580;57.670;12.006;2022-09-09T06:26:22;0.70;;;0.60;;
13012;SDS011;22580;57.670;12.006;2022-09-09T06:28:51;0.63;;;0.63;;
13012;SDS011;22580;57.670;12.006;2022-09-09T06:31:20;0.67;;;0.67;;
13012;SDS011;22580;57.670;12.006;2022-09-09T06:33:48;0.50;;;0.50;;
13012;SDS011;22580;57.670;12.006;2022-09-09T06:36:20;0.53;;;0.53;;
13012;SDS011;22580;57.670;12.006;2022-09-09T06:38:49;0.60;;;0.60;;
13012;SDS011;22580;57.670;12.006;2022-09-09T06:41:16;0.50;;;0.40;;
13012;SDS011;22580;57.670;12.006;2022-09-09T06:43:46;0.30;;;0.30;;
13012;SDS011;22580;57.670;12.006;2022-09-09T06:46:14;0.50;;;0.50;;
13012;SDS011;22580;57.670;12.006;2022-09-09T06:48:42;0.70;;;0.50;;
13012;SDS011;22580;57.670;12.006;2022-09-09T06:51:11;0.60;;;0.60;;
13012;SDS011;22580;57.670;12.006;2022-09-09T06:53:43;0.40;;;0.40;;
13012;SDS011;22580;57.670;12.006;2022-09-09T06:56:19;0.50;;;0.50;;
13012;SDS011;22580;57.670;12.006;2022-09-09T06:58:50;0.80;;;0.68;;
13012;SDS011;22580;57.670;12.006;2022-09-09T07:01:20;0.70;;;0.53;;
13012;SDS011;22580;57.670;12.006;2022-09-09T07:03:49;1.10;;;0.80;;
13012;SDS011;22580;57.670;12.006;2022-09-09T07:06:18;0.60;;;0.60;;
13012;SDS011;22580;57.670;12.006;2022-09-09T07:08:49;0.70;;;0.70;;
13012;SDS011;22580;57.670;12.006;2022-09-09T07:11:18;0.67;;;0.67;;
13012;SDS011;22580;57.670;12.006;2022-09-09T07:13:46;0.88;;;0.88;;
13012;SDS011;22580;57.670;12.006;2022-09-09T07:16:15;0.88;;;0.88;;
13012;SDS011;22580;57.670;12.006;2022-09-09T07:18:49;0.80;;;0.80;;
13012;SDS011;22580;57.670;12.006;2022-09-09T07:21:17;0.90;;;0.82;;
13012;SDS011;22580;57.670;12.006;2022-09-09T07:23:45;1.45;;;1.00;;
13012;SDS011;22580;57.670;12.006;2022-09-09T07:26:14;0.80;;;0.80;;
13012;SDS011;22580;57.670;12.006;2022-09-09T07:28:42;0.60;;;0.60;;
13012;SDS011;22580;57.670;12.006;2022-09-09T07:31:12;1.05;;;0.80;;
13012;SDS011;22580;57.670;12.006;2022-09-09T07:33:43;0.70;;;0.70;;
13012;SDS011;22580;57.670;12.006;2022-09-09T07:36:12;0.88;;;0.80;;
13012;SDS011;22580;57.670;12.006;2022-09-09T07:38:41;0.50;;;0.50;;
13012;SDS011;22580;57.670;12.006;2022-09-09T07:41:10;0.65;;;0.65;;
13012;SDS011;22580;57.670;12.006;2022-09-09T07:43:42;0.73;;;0.70;;
13012;SDS011;22580;57.670;12.006;2022-09-09T07:46:11;0.90;;;0.90;;
13012;SDS011;22580;57.670;12.006;2022-09-09T07:48:44;0.80;;;0.73;;
13012;SDS011;22580;57.670;12.006;2022-09-09T07:51:12;1.05;;;1.05;;
13012;SDS011;22580;57.670;12.006;2022-09-09T07:53:44;1.17;;;1.00;;
13012;SDS011;22580;57.670;12.006;2022-09-09T07:56:12;1.42;;;0.82;;
13012;SDS011;22580;57.670;12.006;2022-09-09T07:58:45;0.90;;;0.90;;
13012;SDS011;22580;57.670;12.006;2022-09-09T08:01:13;0.95;;;0.85;;
13012;SDS011;22580;57.670;12.006;2022-09-09T08:03:44;0.67;;;0.67;;
13012;SDS011;22580;57.670;12.006;2022-09-09T08:06:15;0.70;;;0.70;;
13012;SDS011;22580;57.670;12.006;2022-09-09T08:08:42;0.80;;;0.80;;
13012;SDS011;22580;57.670;12.006;2022-09-09T08:11:14;0.80;;;0.80;;
13012;SDS011;22580;57.670;12.006;2022-09-09T08:13:43;1.58;;;0.80;;
13012;SDS011;22580;57.670;12.006;2022-09-09T08:16:11;0.85;;;0.80;;
13012;SDS011;22580;57.670;12.006;2022-09-09T08:18:39;1.17;;;0.85;;
13012;SDS011;22580;57.670;12.006;2022-09-09T08:21:09;0.70;;;0.70;;
13012;SDS011;22580;57.670;12.006;2022-09-09T08:23:38;0.93;;;0.93;;
13012;SDS011;22580;57.670;12.006;2022-09-09T08:26:07;0.82;;;0.77;;
13012;SDS011;22580;57.670;12.006;2022-09-09T08:28:36;1.02;;;0.90;;
13012;SDS011;22580;57.670;12.006;2022-09-09T08:31:05;0.73;;;0.73;;
13012;SDS011;22580;57.670;12.006;2022-09-09T08:33:37;0.80;;;0.80;;
13012;SDS011;22580;57.670;12.006;2022-09-09T08:36:05;0.80;;;0.80;;
13012;SDS011;22580;57.670;12.006;2022-09-09T08:38:35;0.80;;;0.80;;
13012;SDS011;22580;57.670;12.006;2022-09-09T08:44:09;0.77;;;0.73;;
13012;SDS011;22580;57.670;12.006;2022-09-09T08:46:46;0.82;;;0.80;;
13012;SDS011;22580;57.670;12.006;2022-09-09T08:49:29;0.70;;;0.70;;
13012;SDS011;22580;57.670;12.006;2022-09-09T08:52:12;0.68;;;0.68;;
13012;SDS011;22580;57.670;12.006;2022-09-09T08:54:45;1.63;;;1.02;;
13012;SDS011;22580;57.670;12.006;2022-09-09T08:57:14;1.10;;;1.10;;
13012;SDS011;22580;57.670;12.006;2022-09-09T08:59:46;0.93;;;0.82;;
13012;SDS011;22580;57.670;12.006;2022-09-09T09:02:14;1.60;;;1.00;;
13012;SDS011;22580;57.670;12.006;2022-09-09T09:07:35;0.90;;;0.90;;
13012;SDS011;22580;57.670;12.006;2022-09-09T09:10:18;0.75;;;0.75;;
13012;SDS011;22580;57.670;12.006;2022-09-09T09:12:55;0.60;;;0.60;;
13012;SDS011;22580;57.670;12.006;2022-09-09T09:15:24;0.80;;;0.80;;
13012;SDS011;22580;57.670;12.006;2022-09-09T09:17:53;1.15;;;1.00;;
13012;SDS011;22580;57.670;12.006;2022-09-09T09:20:21;1.35;;;0.90;;
13012;SDS011;22580;57.670;12.006;2022-09-09T09:22:56;1.58;;;0.82;;
13012;SDS011;22580;57.670;12.006;2022-09-09T09:25:30;0.90;;;0.90;;
13012;SDS011;22580;57.670;12.006;2022-09-09T09:28:01;0.90;;;0.90;;
13012;SDS011;22580;57.670;12.006;2022-09-09T09:30:31;0.80;;;0.80;;
13012;SDS011;22580;57.670;12.006;2022-09-09T09:33:05;0.60;;;0.60;;
13012;SDS011;22580;57.670;12.006;2022-09-09T09:35:40;0.82;;;0.82;;
13012;SDS011;22580;57.670;12.006;2022-09-09T09:38:10;0.70;;;0.70;;
13012;SDS011;22580;57.670;12.006;2022-09-09T09:40:51;1.40;;;1.00;;
13012;SDS011;22580;57.670;12.006;2022-09-09T09:43:24;1.00;;;1.00;;
13012;SDS011;22580;57.670;12.006;2022-09-09T09:45:54;0.85;;;0.85;;
13012;SDS011;22580;57.670;12.006;2022-09-09T09:48:23;0.70;;;0.70;;
13012;SDS011;22580;57.670;12.006;2022-09-09T09:50:51;1.52;;;1.00;;
13012;SDS011;22580;57.670;12.006;2022-09-09T09:53:21;1.02;;;0.82;;
13012;SDS011;22580;57.670;12.006;2022-09-09T09:55:54;1.35;;;1.10;;
13012;SDS011;22580;57.670;12.006;2022-09-09T09:58:24;0.95;;;0.95;;
13012;SDS011;22580;57.670;12.006;2022-09-09T10:00:53;0.70;;;0.70;;
13012;SDS011;22580;57.670;12.006;2022-09-09T10:03:24;0.88;;;0.88;;
13012;SDS011;22580;57.670;12.006;2022-09-09T10:05:56;0.70;;;0.70;;
13012;SDS011;22580;57.670;12.006;2022-09-09T10:08:23;1.52;;;0.90;;
13012;SDS011;22580;57.670;12.006;2022-09-09T10:10:55;1.08;;;0.80;;
13012;SDS011;22580;57.670;12.006;2022-09-09T10:13:30;0.70;;;0.70;;
13012;SDS011;22580;57.670;12.006;2022-09-09T10:16:18;0.80;;;0.80;;
13012;SDS011;22580;57.670;12.006;2022-09-09T10:18:58;0.75;;;0.75;;
13012;SDS011;22580;57.670;12.006;2022-09-09T10:21:32;0.90;;;0.80;;
13012;SDS011;22580;57.670;12.006;2022-09-09T10:24:21;0.75;;;0.75;;
13012;SDS011;22580;57.670;12.006;2022-09-09T10:27:22;1.10;;;0.93;;
13012;SDS011;22580;57.670;12.006;2022-09-09T10:29:59;0.85;;;0.80;;
13012;SDS011;22580;57.670;12.006;2022-09-09T10:32:37;1.00;;;0.98;;
13012;SDS011;22580;57.670;12.006;2022-09-09T10:35:13;1.08;;;1.00;;
13012;SDS011;22580;57.670;12.006;2022-09-09T10:37:52;0.98;;;0.98;;
13012;SDS011;22580;57.670;12.006;2022-09-09T10:40:31;0.85;;;0.85;;
13012;SDS011;22580;57.670;12.006;2022-09-09T10:43:03;0.90;;;0.90;;
13012;SDS011;22580;57.670;12.006;2022-09-09T10:45:41;0.93;;;0.93;;
13012;SDS011;22580;57.670;12.006;2022-09-09T10:48:23;2.03;;;1.38;;
13012;SDS011;22580;57.670;12.006;2022-09-09T10:51:00;0.80;;;0.80;;
13012;SDS011;22580;57.670;12.006;2022-09-09T10:53:43;1.02;;;1.02;;
13012;SDS011;22580;57.670;12.006;2022-09-09T10:56:20;0.90;;;0.90;;
13012;SDS011;22580;57.670;12.006;2022-09-09T10:58:52;1.00;;;1.00;;
13012;SDS011;22580;57.670;12.006;2022-09-09T11:01:25;1.25;;;1.15;;
13012;SDS011;22580;57.670;12.006;2022-09-09T11:03:57;1.02;;;1.02;;
13012;SDS011;22580;57.670;12.006;2022-09-09T11:06:32;1.10;;;1.00;;
13012;SDS011;22580;57.670;12.006;2022-09-09T11:09:03;0.80;;;0.80;;
13012;SDS011;22580;57.670;12.006;2022-09-09T11:11:33;0.70;;;0.70;;
13012;SDS011;22580;57.670;12.006;2022-09-09T11:14:10;0.80;;;0.80;;
13012;SDS011;22580;57.670;12.006;2022-09-09T11:16:44;0.90;;;0.90;;
13012;SDS011;22580;57.670;12.006;2022-09-09T11:19:17;0.80;;;0.80;;
13012;SDS011;22580;57.670;12.006;2022-09-09T11:21:51;0.80;;;0.80;;
13012;SDS011;22580;57.670;12.006;2022-09-09T11:24:20;1.00;;;0.90;;
13012;SDS011;22580;57.670;12.006;2022-09-09T11:26:53;0.70;;;0.70;;
13012;SDS011;22580;57.670;12.006;2022-09-09T11:29:36;0.60;;;0.60;;
13012;SDS011;22580;57.670;12.006;2022-09-09T11:32:19;0.82;;;0.70;;
13012;SDS011;22580;57.670;12.006;2022-09-09T11:35:09;0.60;;;0.60;;
13012;SDS011;22580;57.670;12.006;2022-09-09T11:37:57;0.50;;;0.50;;
13012;SDS011;22580;57.670;12.006;2022-09-09T11:40:39;0.55;;;0.55;;
13012;SDS011;22580;57.670;12.006;2022-09-09T11:43:09;0.50;;;0.50;;
13012;SDS011;22580;57.670;12.006;2022-09-09T11:45:40;0.52;;;0.50;;
13012;SDS011;22580;57.670;12.006;2022-09-09T11:48:21;0.40;;;0.40;;
13012;SDS011;22580;57.670;12.006;2022-09-09T11:50:57;0.52;;;0.52;;
13012;SDS011;22580;57.670;12.006;2022-09-09T11:53:25;0.60;;;0.60;;
13012;SDS011;22580;57.670;12.006;2022-09-09T11:56:06;0.65;;;0.65;;
13012;SDS011;22580;57.670;12.006;2022-09-09T11:58:40;0.70;;;0.70;;
13012;SDS011;22580;57.670;12.006;2022-09-09T12:04:06;0.60;;;0.60;;
13012;SDS011;22580;57.670;12.006;2022-09-09T12:06:56;0.57;;;0.57;;
13012;SDS011;22580;57.670;12.006;2022-09-09T12:09:28;0.40;;;0.40;;
13012;SDS011;22580;57.670;12.006;2022-09-09T12:12:05;0.98;;;0.98;;
13012;SDS011;22580;57.670;12.006;2022-09-09T12:14:37;0.80;;;0.80;;
13012;SDS011;22580;57.670;12.006;2022-09-09T12:17:15;0.90;;;0.90;;
13012;SDS011;22580;57.670;12.006;2022-09-09T12:19:46;0.93;;;0.93;;
13012;SDS011;22580;57.670;12.006;2022-09-09T12:22:16;1.25;;;0.98;;
13012;SDS011;22580;57.670;12.006;2022-09-09T12:24:54;0.82;;;0.82;;
13012;SDS011;22580;57.670;12.006;2022-09-09T12:27:28;0.60;;;0.60;;
13012;SDS011;22580;57.670;12.006;2022-09-09T12:30:03;0.52;;;0.52;;
13012;SDS011;22580;57.670;12.006;2022-09-09T12:32:36;0.93;;;0.90;;
13012;SDS011;22580;57.670;12.006;2022-09-09T12:35:04;0.60;;;0.60;;
13012;SDS011;22580;57.670;12.006;2022-09-09T12:37:38;0.60;;;0.60;;
13012;SDS011;22580;57.670;12.006;2022-09-09T12:40:18;0.52;;;0.52;;
13012;SDS011;22580;57.670;12.006;2022-09-09T12:42:47;0.93;;;0.73;;
13012;SDS011;22580;57.670;12.006;2022-09-09T12:45:16;0.65;;;0.60;;
13012;SDS011;22580;57.670;12.006;2022-09-09T12:47:46;0.70;;;0.70;;
13012;SDS011;22580;57.670;12.006;2022-09-09T12:50:18;0.52;;;0.52;;
13012;SDS011;22580;57.670;12.006;2022-09-09T12:52:47;0.88;;;0.63;;
13012;SDS011;22580;57.670;12.006;2022-09-09T12:55:17;0.70;;;0.60;;
13012;SDS011;22580;57.670;12.006;2022-09-09T12:57:46;0.68;;;0.68;;
13012;SDS011;22580;57.670;12.006;2022-09-09T13:00:17;0.50;;;0.50;;
13012;SDS011;22580;57.670;12.006;2022-09-09T13:02:50;1.08;;;0.98;;
13012;SDS011;22580;57.670;12.006;2022-09-09T13:05:20;0.68;;;0.68;;
13012;SDS011;22580;57.670;12.006;2022-09-09T13:07:52;0.80;;;0.80;;
13012;SDS011;22580;57.670;12.006;2022-09-09T13:10:28;0.80;;;0.80;;
13012;SDS011;22580;57.670;12.006;2022-09-09T13:12:58;0.73;;;0.73;;
13012;SDS011;22580;57.670;12.006;2022-09-09T13:15:30;0.60;;;0.60;;
13012;SDS011;22580;57.670;12.006;2022-09-09T13:17:59;0.82;;;0.82;;
13012;SDS011;22580;57.670;12.006;2022-09-09T13:20:29;0.90;;;0.90;;
13012;SDS011;22580;57.670;12.006;2022-09-09T13:22:57;1.35;;;0.93;;
13012;SDS011;22580;57.670;12.006;2022-09-09T13:25:25;1.02;;;1.00;;
13012;SDS011;22580;57.670;12.006;2022-09-09T13:27:55;0.85;;;0.85;;
13012;SDS011;22580;57.670;12.006;2022-09-09T13:30:24;0.80;;;0.80;;
13012;SDS011;22580;57.670;12.006;2022-09-09T13:35:49;1.20;;;1.10;;
13012;SDS011;22580;57.670;12.006;2022-09-09T13:38:20;1.33;;;0.90;;
13012;SDS011;22580;57.670;12.006;2022-09-09T13:40:54;1.25;;;1.15;;
13012;SDS011;22580;57.670;12.006;2022-09-09T13:43:24;0.90;;;0.90;;
13012;SDS011;22580;57.670;12.006;2022-09-09T13:45:56;0.60;;;0.60;;
13012;SDS011;22580;57.670;12.006;2022-09-09T13:48:26;0.90;;;0.90;;
13012;SDS011;22580;57.670;12.006;2022-09-09T13:50:59;1.00;;;0.90;;
13012;SDS011;22580;57.670;12.006;2022-09-09T13:53:28;0.90;;;0.90;;
13012;SDS011;22580;57.670;12.006;2022-09-09T13:55:55;0.70;;;0.70;;
13012;SDS011;22580;57.670;12.006;2022-09-09T13:58:24;0.70;;;0.70;;
13012;SDS011;22580;57.670;12.006;2022-09-09T14:00:52;0.70;;;0.70;;
13012;SDS011;22580;57.670;12.006;2022-09-09T14:03:19;0.85;;;0.77;;
13012;SDS011;22580;57.670;12.006;2022-09-09T14:05:48;0.75;;;0.75;;
13012;SDS011;22580;57.670;12.006;2022-09-09T14:08:22;0.73;;;0.73;;
13012;SDS011;22580;57.670;12.006;2022-09-09T14:10:52;0.60;;;0.60;;
13012;SDS011;22580;57.670;12.006;2022-09-09T14:13:25;0.68;;;0.60;;
13012;SDS011;22580;57.670;12.006;2022-09-09T14:15:52;0.50;;;0.50;;
13012;SDS011;22580;57.670;12.006;2022-09-09T14:18:19;0.63;;;0.63;;
13012;SDS011;22580;57.670;12.006;2022-09-09T14:20:49;0.70;;;0.70;;
13012;SDS011;22580;57.670;12.006;2022-09-09T14:23:16;0.52;;;0.52;;
13012;SDS011;22580;57.670;12.006;2022-09-09T14:25:44;0.75;;;0.75;;
13012;SDS011;22580;57.670;12.006;2022-09-09T14:28:12;0.60;;;0.60;;
13012;SDS011;22580;57.670;12.006;2022-09-09T14:30:40;0.50;;;0.50;;
13012;SDS011;22580;57.670;12.006;2022-09-09T14:33:09;0.80;;;0.80;;
13012;SDS011;22580;57.670;12.006;2022-09-09T14:35:38;0.63;;;0.60;;
13012;SDS011;22580;57.670;12.006;2022-09-09T14:38:07;0.70;;;0.60;;
13012;SDS011;22580;57.670;12.006;2022-09-09T14:40:35;0.70;;;0.60;;
13012;SDS011;22580;57.670;12.006;2022-09-09T14:43:03;0.57;;;0.57;;
13012;SDS011;22580;57.670;12.006;2022-09-09T14:45:30;0.52;;;0.52;;
13012;SDS011;22580;57.670;12.006;2022-09-09T14:47:57;0.52;;;0.52;;
13012;SDS011;22580;57.670;12.006;2022-09-09T14:50:24;0.60;;;0.60;;
13012;SDS011;22580;57.670;12.006;2022-09-09T14:52:51;0.70;;;0.70;;
13012;SDS011;22580;57.670;12.006;2022-09-09T14:55:19;1.02;;;0.50;;
13012;SDS011;22580;57.670;12.006;2022-09-09T14:57:46;0.60;;;0.60;;
13012;SDS011;22580;57.670;12.006;2022-09-09T15:00:14;0.70;;;0.50;;
13012;SDS011;22580;57.670;12.006;2022-09-09T15:02:41;0.50;;;0.50;;
13012;SDS011;22580;57.670;12.006;2022-09-09T15:05:12;0.50;;;0.50;;
13012;SDS011;22580;57.670;12.006;2022-09-09T15:07:40;0.52;;;0.50;;
13012;SDS011;22580;57.670;12.006;2022-09-09T15:10:07;0.70;;;0.70;;